Time;durP1;ratioP1;P1;durP2;ratioP2;P2;SDS_P1;SDS_P2;PMS_P1;PMS_P2;Temp;Humidity;BMP_temperature;BMP_pressure;BME280_temperature;BME280_humidity;BME280_pressure;Samples;Min_cycle;Max_cycle;Signal;HPM_P1;HPM_P2
2023/08/27 00:01:26;;;;;;;0.50;0.40;;;16.50;99.90;;;;;;5051634;28;20447;-79
2023/08/27 00:03:53;;;;;;;0.50;0.40;;;16.40;99.90;;;;;;5051348;28;20506;-80
2023/08/27 00:06:20;;;;;;;0.50;0.40;;;16.40;99.90;;;;;;5051159;28;20474;-79
2023/08/27 00:08:46;;;;;;;0.50;0.40;;;16.30;99.90;;;;;;5051246;28;20834;-78
2023/08/27 00:11:13;;;;;;;0.50;0.30;;;16.40;99.90;;;;;;5050912;28;20784;-77
2023/08/27 00:13:40;;;;;;;0.50;0.40;;;16.40;99.90;;;;;;5050878;28;20914;-80
2023/08/27 00:16:07;;;;;;;0.50;0.40;;;16.40;99.90;;;;;;5050912;28;20459;-79
2023/08/27 00:18:35;;;;;;;0.50;0.30;;;16.40;99.90;;;;;;5050411;28;20498;-78
2023/08/27 00:21:01;;;;;;;0.50;0.40;;;16.30;99.90;;;;;;5051324;28;20442;-79
2023/08/27 00:23:28;;;;;;;0.50;0.40;;;16.30;99.90;;;;;;5051059;28;20545;-79
2023/08/27 00:25:55;;;;;;;0.50;0.40;;;16.30;99.90;;;;;;5050832;28;20473;-78
2023/08/27 00:28:22;;;;;;;0.50;0.40;;;16.20;99.90;;;;;;5050700;28;20443;-79
2023/08/27 00:30:48;;;;;;;0.50;0.40;;;16.10;99.90;;;;;;5050864;28;20969;-78
2023/08/27 00:33:15;;;;;;;0.50;0.40;;;16.00;99.90;;;;;;5050877;28;20937;-79
2023/08/27 00:35:53;;;;;;;0.50;0.40;;;16.00;99.90;;;;;;5050727;28;20981;-79
2023/08/27 00:38:20;;;;;;;0.50;0.40;;;15.90;99.90;;;;;;5050586;28;20438;-78
2023/08/27 00:40:46;;;;;;;0.50;0.40;;;15.90;99.90;;;;;;5051258;28;20443;-79
2023/08/27 00:43:13;;;;;;;0.50;0.40;;;15.90;99.90;;;;;;5050732;28;20439;-78
2023/08/27 00:45:40;;;;;;;0.50;0.40;;;15.80;99.90;;;;;;5050521;28;20489;-79
2023/08/27 00:48:07;;;;;;;0.50;0.40;;;15.80;99.90;;;;;;5050952;28;20794;-78
2023/08/27 00:50:34;;;;;;;0.50;0.40;;;15.80;99.90;;;;;;5053566;28;20443;-79
2023/08/27 00:53:03;;;;;;;0.50;0.40;;;15.70;99.90;;;;;;5054239;28;20442;-79
2023/08/27 00:55:30;;;;;;;0.50;0.40;;;15.70;99.90;;;;;;5053900;28;20470;-79
2023/08/27 00:57:57;;;;;;;0.50;0.40;;;15.60;99.90;;;;;;5053992;28;20439;-79
2023/08/27 01:00:24;;;;;;;0.87;0.87;;;15.50;99.90;;;;;;5053835;28;20938;-79
2023/08/27 01:02:51;;;;;;;0.50;0.40;;;15.40;99.90;;;;;;5054393;28;20446;-78
2023/08/27 01:05:20;;;;;;;0.97;0.97;;;15.40;99.90;;;;;;5053689;28;20487;-77
2023/08/27 01:07:53;;;;;;;0.50;0.40;;;15.30;99.90;;;;;;5053831;28;20475;-79
2023/08/27 01:10:32;;;;;;;0.50;0.40;;;15.30;99.90;;;;;;5053360;28;20932;-77
2023/08/27 01:13:03;;;;;;;0.50;0.40;;;15.30;99.90;;;;;;5047711;28;21236;-78
2023/08/27 01:15:31;;;;;;;0.50;0.40;;;15.20;99.90;;;;;;5053819;28;20538;-79
2023/08/27 01:18:00;;;;;;;0.50;0.40;;;15.20;99.90;;;;;;5053771;28;20449;-79
2023/08/27 01:20:27;;;;;;;0.50;0.40;;;15.20;99.90;;;;;;5053338;28;20448;-78
2023/08/27 01:22:55;;;;;;;0.50;0.40;;;15.10;99.90;;;;;;5053870;28;20534;-79
2023/08/27 01:25:28;;;;;;;0.50;0.40;;;15.10;99.90;;;;;;5053814;28;20478;-78
2023/08/27 01:28:04;;;;;;;0.50;0.40;;;15.10;99.90;;;;;;5053444;28;20439;-79
2023/08/27 01:30:36;;;;;;;0.50;0.40;;;15.10;99.90;;;;;;5053612;28;20444;-79
2023/08/27 01:33:09;;;;;;;0.50;0.40;;;15.00;99.90;;;;;;5053844;28;20924;-79
2023/08/27 01:35:37;;;;;;;0.50;0.40;;;15.00;99.90;;;;;;5053649;28;20520;-78
2023/08/27 01:38:06;;;;;;;0.50;0.40;;;15.00;99.90;;;;;;5053405;28;20438;-77
2023/08/27 01:40:33;;;;;;;0.50;0.40;;;15.00;99.90;;;;;;5053578;28;20922;-79
2023/08/27 01:42:59;;;;;;;0.50;0.40;;;15.00;99.90;;;;;;5053684;28;20438;-78
2023/08/27 01:45:26;;;;;;;0.50;0.40;;;15.00;99.90;;;;;;5053258;28;20480;-79
2023/08/27 01:47:53;;;;;;;0.50;0.40;;;15.00;99.90;;;;;;5054349;28;20450;-78
2023/08/27 01:50:20;;;;;;;0.50;0.40;;;15.00;99.90;;;;;;5053939;28;20458;-79
2023/08/27 01:52:47;;;;;;;0.50;0.40;;;15.10;99.90;;;;;;5053436;28;20440;-79
2023/08/27 01:55:15;;;;;;;0.50;0.40;;;15.10;99.90;;;;;;5053279;28;20562;-79
2023/08/27 01:57:42;;;;;;;0.50;0.40;;;15.10;99.90;;;;;;5052878;28;21295;-79
2023/08/27 02:00:10;;;;;;;0.50;0.40;;;15.10;99.90;;;;;;5052792;28;20442;-78
2023/08/27 02:02:37;;;;;;;0.50;0.40;;;15.10;99.90;;;;;;5053339;28;20439;-79
2023/08/27 02:05:05;;;;;;;0.50;0.40;;;15.10;99.90;;;;;;5053434;28;20528;-79
2023/08/27 02:07:32;;;;;;;0.50;0.40;;;15.10;99.90;;;;;;5052462;28;20449;-80
2023/08/27 02:09:59;;;;;;;0.50;0.40;;;15.10;99.90;;;;;;5052647;28;20450;-79
2023/08/27 02:12:27;;;;;;;0.50;0.40;;;15.10;99.90;;;;;;5052738;28;20470;-78
2023/08/27 02:14:54;;;;;;;0.50;0.40;;;15.10;99.90;;;;;;5053172;28;20443;-79
2023/08/27 02:17:21;;;;;;;0.50;0.40;;;15.00;99.90;;;;;;5052833;28;20472;-79
2023/08/27 02:19:47;;;;;;;0.50;0.40;;;15.10;99.90;;;;;;5052436;28;20446;-79
2023/08/27 02:22:14;;;;;;;0.50;0.40;;;15.10;99.90;;;;;;5052888;28;20450;-80
2023/08/27 02:24:41;;;;;;;0.50;0.40;;;15.10;99.90;;;;;;5052263;28;20487;-78
2023/08/27 02:27:08;;;;;;;0.50;0.40;;;15.10;99.90;;;;;;5052710;28;20474;-78
2023/08/27 02:29:36;;;;;;;0.50;0.40;;;15.20;99.90;;;;;;5052206;28;20968;-79
2023/08/27 02:32:03;;;;;;;0.50;0.40;;;15.20;99.90;;;;;;5052729;28;20435;-79
2023/08/27 02:34:30;;;;;;;0.50;0.40;;;15.20;99.90;;;;;;5052490;28;20441;-79
2023/08/27 02:36:57;;;;;;;0.50;0.40;;;15.20;99.90;;;;;;5052564;28;20465;-78
2023/08/27 02:39:24;;;;;;;0.50;0.40;;;15.20;99.90;;;;;;5052199;28;20453;-78
2023/08/27 02:41:51;;;;;;;0.50;0.40;;;15.20;99.90;;;;;;5052259;28;20440;-79
2023/08/27 02:44:17;;;;;;;1.47;1.37;;;15.30;99.90;;;;;;5052496;28;20443;-78
2023/08/27 02:46:46;;;;;;;0.50;0.40;;;15.30;99.90;;;;;;5044094;28;20469;-80
2023/08/27 02:49:12;;;;;;;0.50;0.40;;;15.30;99.90;;;;;;5052053;28;20455;-79
2023/08/27 02:51:39;;;;;;;0.50;0.40;;;15.30;99.90;;;;;;5052149;28;20458;-78
2023/08/27 02:54:06;;;;;;;0.50;0.40;;;15.20;99.90;;;;;;5052210;28;20439;-79
2023/08/27 02:56:33;;;;;;;0.50;0.40;;;15.30;99.90;;;;;;5051906;28;20474;-80
2023/08/27 02:59:00;;;;;;;0.50;0.40;;;15.20;99.90;;;;;;5051847;28;20533;-80
2023/08/27 03:01:27;;;;;;;0.50;0.40;;;15.20;99.90;;;;;;5052289;28;20451;-79
2023/08/27 03:03:55;;;;;;;0.50;0.40;;;15.20;99.90;;;;;;5036088;28;20452;-80
2023/08/27 03:06:22;;;;;;;0.50;0.40;;;15.10;99.90;;;;;;5052132;28;20483;-79
2023/08/27 03:08:48;;;;;;;0.50;0.40;;;15.10;99.90;;;;;;5051835;28;20453;-78
2023/08/27 03:11:15;;;;;;;0.50;0.40;;;15.00;99.90;;;;;;5045704;28;20449;-80
2023/08/27 03:13:42;;;;;;;0.50;0.40;;;15.00;99.90;;;;;;5049854;28;20448;-79
2023/08/27 03:16:09;;;;;;;0.50;0.40;;;15.00;99.90;;;;;;5051859;28;20462;-79
2023/08/27 03:18:36;;;;;;;0.50;0.40;;;14.90;99.90;;;;;;5051512;28;20530;-79
2023/08/27 03:21:04;;;;;;;0.50;0.40;;;14.80;99.90;;;;;;5051749;28;20447;-78
2023/08/27 03:23:34;;;;;;;0.50;0.40;;;14.70;99.90;;;;;;5051868;28;20476;-77
2023/08/27 03:26:01;;;;;;;0.50;0.40;;;14.70;99.90;;;;;;5051751;28;20487;-77
2023/08/27 03:28:28;;;;;;;0.50;0.40;;;14.70;99.90;;;;;;5043488;28;20934;-79
2023/08/27 03:30:54;;;;;;;0.50;0.40;;;14.70;99.90;;;;;;5051579;28;20827;-80
2023/08/27 03:33:21;;;;;;;0.50;0.40;;;14.70;99.90;;;;;;5052032;28;20445;-79
2023/08/27 03:35:52;;;;;;;0.50;0.40;;;14.60;99.90;;;;;;5051464;28;20469;-79
2023/08/27 03:38:20;;;;;;;0.50;0.40;;;14.60;99.90;;;;;;5051732;28;20445;-79
2023/08/27 03:40:51;;;;;;;0.50;0.40;;;14.60;99.90;;;;;;5051309;28;20819;-79
2023/08/27 03:43:18;;;;;;;0.50;0.40;;;14.60;99.90;;;;;;5051812;28;21024;-80
2023/08/27 03:45:45;;;;;;;0.50;0.40;;;14.50;99.90;;;;;;5051255;28;20481;-79
2023/08/27 03:48:12;;;;;;;0.50;0.40;;;14.50;99.90;;;;;;5046071;28;20447;-79
2023/08/27 03:50:39;;;;;;;0.50;0.40;;;14.50;99.90;;;;;;5048569;28;20453;-78
2023/08/27 03:53:06;;;;;;;0.50;0.40;;;14.50;99.90;;;;;;5051708;28;20443;-79
2023/08/27 03:55:39;;;;;;;0.50;0.40;;;14.60;99.90;;;;;;5051157;28;20479;-80
2023/08/27 03:58:06;;;;;;;0.50;0.40;;;14.60;99.90;;;;;;5041488;28;20451;-80
2023/08/27 04:00:34;;;;;;;0.50;0.40;;;14.50;99.90;;;;;;5056874;28;20496;-80
2023/08/27 04:03:01;;;;;;;0.50;0.40;;;14.50;99.90;;;;;;5040517;28;20450;-80
2023/08/27 04:05:27;;;;;;;0.50;0.40;;;14.50;99.90;;;;;;5055926;28;20474;-81
2023/08/27 04:07:54;;;;;;;0.50;0.40;;;14.50;99.90;;;;;;5054535;28;20454;-78
2023/08/27 04:10:21;;;;;;;0.50;0.40;;;14.40;99.90;;;;;;5055621;28;20459;-80
2023/08/27 04:12:49;;;;;;;0.50;0.40;;;14.50;99.90;;;;;;5056681;28;21020;-79
2023/08/27 04:15:16;;;;;;;0.50;0.40;;;14.60;99.90;;;;;;5056346;28;20443;-80
2023/08/27 04:17:43;;;;;;;0.50;0.40;;;14.70;99.90;;;;;;5057907;28;20438;-79
2023/08/27 04:20:10;;;;;;;0.50;0.40;;;14.80;99.90;;;;;;5054189;28;20451;-80
2023/08/27 04:22:37;;;;;;;0.50;0.40;;;14.80;99.90;;;;;;5052553;28;20443;-79
2023/08/27 04:25:05;;;;;;;0.50;0.40;;;14.80;99.90;;;;;;5056424;28;20483;-79
2023/08/27 04:27:32;;;;;;;0.50;0.40;;;14.90;99.90;;;;;;5055562;28;20920;-79
2023/08/27 04:30:00;;;;;;;0.50;0.40;;;15.00;99.90;;;;;;5054540;28;20444;-80
2023/08/27 04:32:27;;;;;;;0.50;0.40;;;15.10;99.90;;;;;;5055258;28;20442;-79
2023/08/27 04:34:54;;;;;;;0.50;0.40;;;15.10;99.90;;;;;;5054912;28;20450;-79
2023/08/27 04:37:20;;;;;;;0.50;0.40;;;15.10;99.90;;;;;;5055299;28;20488;-78
2023/08/27 04:39:47;;;;;;;0.50;0.40;;;15.20;99.90;;;;;;5054555;28;20926;-79
2023/08/27 04:42:14;;;;;;;0.50;0.40;;;15.20;99.90;;;;;;5055152;28;20434;-79
2023/08/27 04:44:41;;;;;;;0.50;0.40;;;15.20;99.90;;;;;;5055256;28;20447;-79
2023/08/27 04:47:09;;;;;;;0.50;0.40;;;15.20;99.90;;;;;;5055551;28;20482;-78
2023/08/27 04:49:36;;;;;;;0.50;0.40;;;15.20;99.90;;;;;;5055122;28;20446;-78
2023/08/27 04:52:04;;;;;;;0.50;0.40;;;15.30;99.90;;;;;;5046996;28;20439;-79
2023/08/27 04:54:30;;;;;;;0.50;0.40;;;15.30;99.90;;;;;;5054944;28;20441;-79
2023/08/27 04:56:57;;;;;;;0.50;0.40;;;15.40;99.90;;;;;;5073837;22;20485;-80
2023/08/27 04:59:24;;;;;;;0.50;0.40;;;15.50;99.90;;;;;;5035386;28;20441;-81
2023/08/27 05:01:54;;;;;;;0.50;0.30;;;15.50;99.90;;;;;;5039089;28;20454;-80
2023/08/27 05:04:23;;;;;;;0.50;0.40;;;15.50;99.90;;;;;;5038488;28;20452;-80
2023/08/27 05:06:50;;;;;;;0.50;0.40;;;15.60;99.90;;;;;;5038628;28;21068;-81
2023/08/27 05:09:17;;;;;;;0.50;0.40;;;15.60;99.90;;;;;;5057897;28;20446;-80
2023/08/27 05:11:43;;;;;;;0.50;0.40;;;15.70;99.90;;;;;;5057206;28;20450;-79
2023/08/27 05:14:10;;;;;;;0.60;0.50;;;15.70;99.90;;;;;;5057735;28;20446;-80
2023/08/27 05:16:37;;;;;;;0.50;0.40;;;15.70;99.90;;;;;;5057000;28;20446;-81
2023/08/27 05:19:04;;;;;;;0.50;0.40;;;15.80;99.90;;;;;;5056598;28;20445;-80
2023/08/27 05:21:32;;;;;;;0.50;0.40;;;15.70;99.90;;;;;;5049238;28;20961;-77
2023/08/27 05:23:59;;;;;;;0.50;0.40;;;15.70;99.90;;;;;;5056912;28;20656;-81
2023/08/27 05:26:26;;;;;;;0.50;0.40;;;15.80;99.90;;;;;;5057033;28;20854;-80
2023/08/27 05:28:52;;;;;;;0.50;0.40;;;15.80;99.90;;;;;;5056533;28;20445;-79
2023/08/27 05:31:19;;;;;;;0.50;0.40;;;15.80;99.90;;;;;;5051928;28;20445;-80
2023/08/27 05:33:46;;;;;;;0.50;0.40;;;15.80;99.90;;;;;;5054240;28;20438;-78
2023/08/27 05:36:12;;;;;;;0.50;0.50;;;15.90;99.90;;;;;;5051775;28;20951;-82
2023/08/27 05:38:40;;;;;;;0.50;0.30;;;15.80;99.90;;;;;;5052887;28;20469;-80
2023/08/27 05:41:07;;;;;;;0.50;0.40;;;15.90;99.90;;;;;;5056881;28;20457;-79
2023/08/27 05:43:34;;;;;;;0.60;0.60;;;15.90;99.90;;;;;;5056604;28;20943;-79
2023/08/27 05:46:01;;;;;;;0.50;0.40;;;15.80;99.90;;;;;;5057373;28;20490;-80
2023/08/27 05:48:27;;;;;;;0.50;0.40;;;15.80;99.90;;;;;;5056606;28;20461;-78
2023/08/27 05:50:54;;;;;;;0.50;0.40;;;15.80;99.90;;;;;;5057390;28;20443;-81
2023/08/27 05:53:21;;;;;;;0.50;0.40;;;15.80;99.90;;;;;;5057331;28;20443;-81
2023/08/27 05:55:49;;;;;;;0.50;0.40;;;15.90;99.90;;;;;;5057201;28;20474;-80
2023/08/27 05:58:16;;;;;;;0.50;0.40;;;16.00;99.90;;;;;;5056372;28;20463;-81
2023/08/27 06:00:43;;;;;;;0.50;0.40;;;16.00;99.90;;;;;;5057071;28;20440;-82
2023/08/27 06:03:10;;;;;;;0.50;0.40;;;16.00;99.90;;;;;;5041066;28;20442;-81
2023/08/27 06:05:37;;;;;;;0.50;0.40;;;16.00;99.90;;;;;;5056742;28;20974;-77
2023/08/27 06:08:04;;;;;;;0.50;0.40;;;16.00;99.90;;;;;;5055935;28;20462;-80
2023/08/27 06:10:32;;;;;;;0.50;0.40;;;16.00;99.90;;;;;;5056585;28;20502;-80
2023/08/27 06:13:00;;;;;;;0.50;0.33;;;16.10;99.90;;;;;;5056134;28;20835;-80
2023/08/27 06:15:28;;;;;;;0.50;0.40;;;16.20;99.90;;;;;;5057257;28;20446;-81
2023/08/27 06:17:55;;;;;;;0.70;0.70;;;16.30;99.90;;;;;;5056581;28;20534;-77
2023/08/27 06:20:22;;;;;;;1.60;1.50;;;16.30;99.90;;;;;;5056662;28;20458;-80
2023/08/27 06:22:48;;;;;;;0.50;0.40;;;16.30;99.90;;;;;;5056189;28;20527;-79
2023/08/27 06:25:15;;;;;;;0.50;0.40;;;16.30;99.90;;;;;;5048086;28;20501;-79
2023/08/27 06:27:42;;;;;;;0.50;0.40;;;16.10;99.90;;;;;;5056149;28;20455;-80
2023/08/27 06:30:11;;;;;;;0.50;0.40;;;16.00;99.90;;;;;;5047343;28;20445;-79
2023/08/27 06:32:38;;;;;;;0.50;0.40;;;16.00;99.90;;;;;;5055716;28;20506;-80
2023/08/27 06:35:05;;;;;;;0.50;0.40;;;15.90;99.90;;;;;;5055593;28;20442;-79
2023/08/27 06:37:32;;;;;;;0.50;0.40;;;15.90;99.90;;;;;;5047858;28;20457;-80
2023/08/27 06:39:59;;;;;;;0.50;0.30;;;15.80;99.90;;;;;;5054288;28;20443;-79
2023/08/27 06:42:25;;;;;;;0.50;0.40;;;15.70;99.90;;;;;;5049718;28;20445;-80
2023/08/27 06:44:52;;;;;;;0.50;0.40;;;15.70;99.90;;;;;;5039901;28;20440;-80
2023/08/27 06:47:20;;;;;;;0.50;0.40;;;15.80;99.90;;;;;;5054856;28;20489;-80
2023/08/27 06:49:50;;;;;;;0.50;0.30;;;15.80;99.90;;;;;;5056454;28;20439;-79
2023/08/27 06:52:17;;;;;;;0.50;0.40;;;15.80;99.90;;;;;;5041020;28;20474;-81
2023/08/27 06:54:44;;;;;;;0.50;0.40;;;15.90;99.90;;;;;;5056429;28;20973;-79
2023/08/27 06:57:11;;;;;;;0.50;0.40;;;15.90;99.90;;;;;;5047630;28;20475;-79
2023/08/27 06:59:38;;;;;;;0.50;0.40;;;15.90;99.90;;;;;;5041373;28;20424;-80
2023/08/27 07:02:05;;;;;;;0.50;0.47;;;16.00;99.90;;;;;;5053528;28;20435;-81
2023/08/27 07:04:34;;;;;;;0.50;0.30;;;15.90;99.90;;;;;;5054789;28;20441;-81
2023/08/27 07:07:00;;;;;;;0.50;0.30;;;15.90;99.90;;;;;;5055216;28;20490;-79
2023/08/27 07:09:27;;;;;;;0.50;0.40;;;15.90;99.90;;;;;;5055152;28;20442;-79
2023/08/27 07:11:54;;;;;;;0.50;0.40;;;15.90;99.90;;;;;;5054643;28;20439;-81
2023/08/27 07:14:21;;;;;;;0.50;0.40;;;16.00;99.90;;;;;;5043316;28;20528;-81
2023/08/27 07:16:48;;;;;;;0.50;0.40;;;16.10;99.90;;;;;;5050556;28;20456;-79
2023/08/27 07:19:14;;;;;;;0.50;0.40;;;16.30;99.90;;;;;;5045979;28;20498;-81
2023/08/27 07:21:43;;;;;;;0.50;0.40;;;16.50;99.90;;;;;;5048087;28;20451;-81
2023/08/27 07:24:09;;;;;;;0.50;0.40;;;16.90;99.90;;;;;;5053804;28;20529;-80
2023/08/27 07:26:36;;;;;;;0.50;0.40;;;17.00;99.90;;;;;;5054625;28;20505;-81
2023/08/27 07:29:03;;;;;;;0.50;0.40;;;17.20;99.90;;;;;;5054204;28;20526;-80
2023/08/27 07:31:30;;;;;;;3.17;1.43;;;17.20;99.90;;;;;;5055219;28;20435;-81
2023/08/27 07:33:56;;;;;;;0.50;0.40;;;17.20;99.90;;;;;;5054608;28;20438;-81
2023/08/27 07:36:23;;;;;;;0.50;0.40;;;17.50;99.90;;;;;;5055045;28;20815;-80
2023/08/27 07:38:52;;;;;;;0.50;0.30;;;18.30;99.90;;;;;;5054454;28;20438;-81
2023/08/27 07:41:19;;;;;;;0.50;0.30;;;19.00;99.90;;;;;;5026840;28;20424;-80
2023/08/27 07:43:45;;;;;;;0.50;0.30;;;19.00;99.90;;;;;;5042487;28;20438;-81
2023/08/27 07:46:12;;;;;;;0.73;0.73;;;19.30;99.90;;;;;;5054289;28;20504;-81
2023/08/27 07:48:39;;;;;;;0.50;0.30;;;19.90;99.90;;;;;;5046284;28;20469;-81
2023/08/27 07:51:05;;;;;;;0.50;0.30;;;20.70;99.90;;;;;;5053236;28;20447;-80
2023/08/27 07:53:31;;;;;;;0.50;0.30;;;21.00;99.90;;;;;;5049246;28;20519;-80
2023/08/27 07:56:00;;;;;;;0.50;0.50;;;21.20;99.90;;;;;;5046742;28;20685;-81
2023/08/27 07:58:29;;;;;;;0.50;0.30;;;21.90;99.90;;;;;;5049814;28;20855;-79
2023/08/27 08:00:59;;;;;;;0.60;0.43;;;21.60;99.90;;;;;;5059846;28;20505;-80
2023/08/27 08:03:25;;;;;;;0.50;0.40;;;21.20;99.90;;;;;;5060134;28;20499;-79
2023/08/27 08:05:52;;;;;;;0.90;0.67;;;20.80;99.90;;;;;;5059518;28;20441;-81
2023/08/27 08:08:19;;;;;;;0.50;0.30;;;20.80;99.90;;;;;;5051492;28;20866;-81
2023/08/27 08:10:46;;;;;;;0.50;0.30;;;20.50;99.90;;;;;;5051245;28;20792;-81
2023/08/27 08:13:14;;;;;;;0.50;0.30;;;20.60;99.90;;;;;;5059237;28;20444;-81
2023/08/27 08:15:41;;;;;;;0.50;0.30;;;20.70;99.90;;;;;;5053853;28;20443;-79
2023/08/27 08:18:08;;;;;;;0.60;0.57;;;21.10;99.90;;;;;;5058468;28;20467;-80
2023/08/27 08:20:34;;;;;;;0.50;0.30;;;21.10;99.90;;;;;;5054885;28;20436;-81
2023/08/27 08:23:01;;;;;;;0.50;0.30;;;21.20;99.90;;;;;;5058425;28;20539;-80
2023/08/27 08:25:28;;;;;;;0.50;0.30;;;21.70;99.90;;;;;;5055554;28;20447;-80
2023/08/27 08:27:55;;;;;;;0.50;0.40;;;22.70;99.90;;;;;;5059429;28;20477;-77
2023/08/27 08:30:23;;;;;;;0.50;0.50;;;22.90;99.90;;;;;;5042813;28;20940;-80
2023/08/27 08:32:52;;;;;;;0.50;0.30;;;22.80;99.90;;;;;;5059384;28;20466;-81
2023/08/27 08:35:19;;;;;;;0.50;0.30;;;22.40;99.90;;;;;;5042891;28;20436;-81
2023/08/27 08:37:46;;;;;;;0.50;0.30;;;22.30;99.90;;;;;;5050602;28;20449;-80
2023/08/27 08:40:14;;;;;;;1.90;0.57;;;22.60;99.90;;;;;;5049853;28;20449;-81
2023/08/27 08:42:47;;;;;;;0.50;0.30;;;22.40;99.90;;;;;;5052587;28;20552;-80
2023/08/27 08:45:20;;;;;;;0.50;0.40;;;21.90;99.90;;;;;;5054206;28;20448;-81
2023/08/27 08:47:50;;;;;;;0.50;0.30;;;21.60;99.90;;;;;;5043797;28;20479;-81
2023/08/27 08:50:19;;;;;;;0.50;0.30;;;21.50;99.90;;;;;;5046125;28;20449;-80
2023/08/27 08:52:47;;;;;;;0.50;0.30;;;21.30;99.90;;;;;;5052198;28;20493;-81
2023/08/27 08:55:16;;;;;;;0.50;0.30;;;21.10;99.90;;;;;;5057861;28;21284;-80
2023/08/27 08:57:48;;;;;;;0.50;0.30;;;21.20;99.90;;;;;;5057504;28;20458;-80
2023/08/27 09:00:16;;;;;;;0.50;0.30;;;21.30;99.90;;;;;;5054316;28;20447;-80
2023/08/27 09:02:43;;;;;;;0.50;0.30;;;21.30;99.90;;;;;;5050698;28;20467;-79
2023/08/27 09:05:12;;;;;;;0.50;0.30;;;21.20;99.90;;;;;;5056767;28;20457;-81
2023/08/27 09:07:39;;;;;;;0.50;0.30;;;21.20;99.90;;;;;;5051557;28;21106;-80
2023/08/27 09:10:09;;;;;;;0.50;0.47;;;21.30;99.90;;;;;;5053217;28;20486;-79
2023/08/27 09:12:40;;;;;;;0.50;0.30;;;21.10;99.90;;;;;;5044045;28;20433;-78
2023/08/27 09:15:08;;;;;;;0.90;0.90;;;20.90;99.90;;;;;;5052871;28;20614;-79
2023/08/27 09:17:35;;;;;;;6.63;2.97;;;20.90;99.90;;;;;;5041808;28;20467;-80
2023/08/27 09:20:02;;;;;;;0.50;0.30;;;20.40;99.90;;;;;;5056087;28;20454;-80
2023/08/27 09:22:30;;;;;;;0.50;0.30;;;20.70;99.90;;;;;;5041195;28;20507;-79
2023/08/27 09:24:57;;;;;;;0.50;0.40;;;20.70;99.90;;;;;;5056989;28;20814;-80
2023/08/27 09:27:25;;;;;;;0.50;0.30;;;20.50;99.90;;;;;;5045693;28;20490;-79
2023/08/27 09:29:52;;;;;;;0.50;0.30;;;20.00;99.90;;;;;;5043744;28;20436;-79
2023/08/27 09:32:21;;;;;;;0.50;0.40;;;19.90;99.90;;;;;;5048464;28;20440;-80
2023/08/27 09:34:48;;;;;;;0.50;0.30;;;19.70;99.90;;;;;;5048319;28;20431;-79
2023/08/27 09:37:14;;;;;;;0.50;0.30;;;19.40;99.90;;;;;;5055269;28;20456;-80
2023/08/27 09:39:45;;;;;;;0.50;0.30;;;19.20;99.90;;;;;;5050642;28;20439;-81
2023/08/27 09:42:12;;;;;;;0.50;0.40;;;19.40;99.90;;;;;;5047987;28;20444;-81
2023/08/27 09:44:39;;;;;;;0.50;0.30;;;19.80;99.90;;;;;;5056454;28;20850;-79
2023/08/27 09:47:08;;;;;;;0.50;0.30;;;21.20;99.90;;;;;;5056476;28;20491;-79
2023/08/27 09:49:40;;;;;;;1.17;1.07;;;22.20;99.90;;;;;;5056662;28;20886;-79
2023/08/27 09:52:08;;;;;;;0.50;0.30;;;23.00;99.90;;;;;;5047880;28;20488;-79
2023/08/27 09:54:35;;;;;;;0.70;0.70;;;23.50;99.90;;;;;;5055657;28;20438;-81
2023/08/27 09:57:04;;;;;;;0.50;0.40;;;23.80;99.90;;;;;;5055917;28;20532;-80
2023/08/27 09:59:31;;;;;;;0.50;0.30;;;23.20;99.90;;;;;;5035534;28;20439;-79
2023/08/27 10:01:58;;;;;;;0.50;0.30;;;22.60;99.90;;;;;;5050626;28;20450;-80
2023/08/27 10:04:25;;;;;;;0.50;0.30;;;22.40;99.90;;;;;;5051950;28;20527;-81
2023/08/27 10:06:52;;;;;;;0.73;0.50;;;22.40;99.90;;;;;;5044640;28;20486;-81
2023/08/27 10:09:19;;;;;;;0.50;0.30;;;22.20;99.90;;;;;;5053286;28;20498;-81
2023/08/27 10:11:47;;;;;;;0.50;0.40;;;22.40;99.90;;;;;;5056561;28;20862;-80
2023/08/27 10:14:16;;;;;;;0.50;0.30;;;23.50;99.90;;;;;;5046473;28;20500;-80
2023/08/27 10:16:43;;;;;;;0.50;0.30;;;24.10;99.90;;;;;;5040043;28;20441;-81
2023/08/27 10:19:11;;;;;;;0.50;0.30;;;24.40;99.90;;;;;;5055281;28;20446;-81
2023/08/27 10:21:37;;;;;;;0.50;0.30;;;25.10;99.90;;;;;;5054937;28;20438;-82
2023/08/27 10:24:06;;;;;;;0.50;0.40;;;25.50;99.90;;;;;;5056440;28;20439;-81
2023/08/27 10:26:33;;;;;;;0.50;0.30;;;25.20;99.90;;;;;;5056173;28;20523;-80
2023/08/27 10:29:01;;;;;;;0.50;0.30;;;24.80;99.90;;;;;;5055540;28;20464;-80
2023/08/27 10:31:29;;;;;;;0.50;0.30;;;23.80;99.90;;;;;;5047953;28;20436;-79
2023/08/27 10:33:56;;;;;;;0.50;0.30;;;23.00;99.90;;;;;;5047681;28;20534;-80
2023/08/27 10:36:29;;;;;;;0.50;0.40;;;22.70;99.90;;;;;;5053779;28;20434;-80
2023/08/27 10:38:57;;;;;;;0.60;0.57;;;22.90;99.90;;;;;;5050610;28;20787;-81
2023/08/27 10:41:25;;;;;;;0.50;0.30;;;23.30;99.90;;;;;;5055605;28;20434;-79
2023/08/27 10:43:52;;;;;;;0.50;0.30;;;23.70;99.90;;;;;;5055232;28;20504;-81
2023/08/27 10:46:21;;;;;;;0.50;0.30;;;24.50;99.90;;;;;;5047506;28;20445;-81
2023/08/27 10:48:53;;;;;;;0.50;0.40;;;25.80;99.90;;;;;;5055269;28;20534;-79
2023/08/27 10:51:21;;;;;;;0.50;0.30;;;26.00;99.80;;;;;;5047100;28;20429;-81
2023/08/27 10:53:59;;;;;;;0.50;0.30;;;26.00;98.60;;;;;;5056449;28;20493;-80
2023/08/27 10:56:37;;;;;;;0.50;0.40;;;26.60;98.90;;;;;;5055010;28;20822;-79
2023/08/27 10:59:05;;;;;;;0.50;0.40;;;27.70;97.20;;;;;;5048360;28;20438;-80
2023/08/27 11:01:36;;;;;;;0.50;0.50;;;27.70;92.20;;;;;;5045945;28;20935;-82
2023/08/27 11:04:05;;;;;;;0.50;0.30;;;28.10;92.50;;;;;;5055853;28;20432;-81
2023/08/27 11:06:32;;;;;;;0.50;0.40;;;27.60;91.00;;;;;;5054991;28;20456;-80
2023/08/27 11:09:00;;;;;;;0.50;0.30;;;27.40;90.10;;;;;;5055663;28;20989;-81
2023/08/27 11:11:27;;;;;;;0.50;0.37;;;27.50;90.10;;;;;;5055216;28;20804;-80
2023/08/27 11:14:05;;;;;;;0.53;0.40;;;27.90;90.30;;;;;;5054950;28;20437;-79
2023/08/27 11:16:32;;;;;;;0.50;0.37;;;28.20;82.70;;;;;;5052250;28;20439;-80
2023/08/27 11:18:59;;;;;;;0.50;0.40;;;28.00;81.80;;;;;;5041652;28;20436;-81
2023/08/27 11:21:48;;;;;;;0.97;0.97;;;28.00;83.20;;;;;;5055521;28;20455;-80
2023/08/27 11:24:15;;;;;;;0.50;0.40;;;28.30;81.40;;;;;;5046677;28;20448;-80
2023/08/27 11:26:43;;;;;;;0.60;0.60;;;27.00;84.90;;;;;;5055160;28;20441;-80
2023/08/27 11:29:10;;;;;;;1.23;0.50;;;26.40;84.10;;;;;;5054922;28;20475;-80
2023/08/27 11:31:40;;;;;;;0.50;0.30;;;26.60;83.60;;;;;;5038611;28;20891;-80
2023/08/27 11:34:07;;;;;;;0.77;0.70;;;26.40;83.00;;;;;;5054198;28;20448;-80
2023/08/27 11:36:34;;;;;;;0.50;0.30;;;26.50;83.50;;;;;;5043910;28;20977;-81
2023/08/27 11:39:05;;;;;;;0.50;0.30;;;26.20;84.70;;;;;;5043560;28;20448;-80
2023/08/27 11:41:36;;;;;;;0.50;0.30;;;26.00;85.40;;;;;;5051702;28;20443;-80
2023/08/27 11:44:04;;;;;;;0.60;0.50;;;26.10;86.40;;;;;;5049910;28;20438;-81
2023/08/27 11:46:31;;;;;;;0.50;0.30;;;26.30;82.90;;;;;;5054680;28;20548;-80
2023/08/27 11:48:58;;;;;;;0.50;0.30;;;26.20;83.10;;;;;;5053994;28;20476;-80
2023/08/27 11:51:25;;;;;;;0.50;0.37;;;25.60;86.10;;;;;;5054798;28;20440;-81
2023/08/27 11:53:52;;;;;;;0.50;0.30;;;25.40;87.80;;;;;;5049300;28;20444;-81
2023/08/27 11:56:21;;;;;;;0.50;0.30;;;24.90;87.30;;;;;;5051455;28;20439;-80
2023/08/27 11:58:51;;;;;;;0.50;0.30;;;24.70;89.00;;;;;;5050616;28;20533;-80
2023/08/27 12:01:20;;;;;;;9.33;0.67;;;25.40;90.00;;;;;;5043042;28;20816;-81
2023/08/27 12:03:48;;;;;;;0.50;0.30;;;25.80;86.70;;;;;;5046773;28;20446;-80
2023/08/27 12:06:18;;;;;;;0.50;0.30;;;26.30;87.10;;;;;;5054443;28;20954;-80
2023/08/27 12:08:49;;;;;;;0.50;0.30;;;26.50;83.90;;;;;;5054627;28;20506;-81
2023/08/27 12:11:16;;;;;;;0.50;0.30;;;27.10;82.10;;;;;;5047036;28;20440;-80
2023/08/27 12:13:48;;;;;;;0.60;0.60;;;27.80;82.30;;;;;;5038377;28;20820;-81
2023/08/27 12:16:15;;;;;;;0.50;0.30;;;27.10;75.40;;;;;;5054463;28;20442;-80
2023/08/27 12:18:46;;;;;;;0.50;0.33;;;25.80;79.30;;;;;;5038003;28;20530;-80
2023/08/27 12:21:13;;;;;;;0.60;0.50;;;25.80;80.30;;;;;;5039545;28;20436;-81
2023/08/27 12:23:50;;;;;;;0.50;0.30;;;26.30;83.10;;;;;;5043557;28;20875;-81
2023/08/27 12:26:16;;;;;;;0.50;0.40;;;26.90;83.60;;;;;;5051249;28;20969;-81
2023/08/27 12:28:53;;;;;;;0.50;0.40;;;27.40;82.00;;;;;;5038210;28;20474;-81
2023/08/27 12:31:23;;;;;;;0.63;0.63;;;27.10;79.30;;;;;;5047130;28;20435;-79
2023/08/27 12:33:50;;;;;;;0.60;0.47;;;27.20;80.30;;;;;;5054640;28;20431;-80
2023/08/27 12:36:17;;;;;;;0.50;0.40;;;27.40;82.50;;;;;;5054433;28;20476;-80
2023/08/27 12:38:43;;;;;;;0.50;0.30;;;27.10;77.50;;;;;;5053852;28;20971;-81
2023/08/27 12:41:10;;;;;;;0.50;0.40;;;27.20;81.00;;;;;;5053894;28;20440;-81
2023/08/27 12:43:38;;;;;;;0.60;0.40;;;27.10;75.70;;;;;;5045608;28;20464;-77
2023/08/27 12:46:06;;;;;;;0.50;0.30;;;26.80;78.60;;;;;;5049825;28;20442;-81
2023/08/27 12:48:34;;;;;;;0.50;0.30;;;26.30;78.80;;;;;;5057051;28;20562;-81
2023/08/27 12:51:01;;;;;;;0.50;0.30;;;25.40;79.90;;;;;;5044125;28;20440;-80